createdAt,value
2018-09-27T00:06:31.347Z,7.63
2018-09-27T00:09:08.025Z,7.40
2018-09-27T00:11:42.440Z,8.30
2018-09-27T00:14:17.473Z,7.83
2018-09-27T00:16:50.512Z,7.83
2018-09-27T00:36:44.443Z,6.63
2018-09-27T00:39:19.473Z,7.10
2018-09-27T00:41:53.484Z,7.97
2018-09-27T00:44:29.542Z,7.47
2018-09-27T00:47:04.371Z,8.73
2018-09-27T01:06:58.766Z,9.07
2018-09-27T01:09:35.234Z,8.90
2018-09-27T01:12:10.466Z,9.73
2018-09-27T01:14:45.505Z,9.10
2018-09-27T01:17:19.514Z,9.20
2018-09-27T01:19:54.546Z,9.63
2018-09-27T01:22:28.555Z,9.80
2018-09-27T01:42:22.540Z,8.57
2018-09-27T01:44:57.575Z,9.40
2018-09-27T01:47:32.400Z,8.77
2018-09-27T02:07:26.588Z,8.93
2018-09-27T02:10:00.394Z,9.67
2018-09-27T02:12:35.632Z,8.20
2018-09-27T02:15:10.460Z,8.23
2018-09-27T02:17:44.473Z,8.20
2018-09-27T02:37:37.435Z,10.30
2018-09-27T02:40:13.485Z,9.57
2018-09-27T02:42:47.498Z,10.70
2018-09-27T02:45:21.508Z,10.83
2018-09-27T02:47:56.542Z,9.63
2018-09-27T03:07:47.448Z,8.97
2018-09-27T03:10:23.508Z,9.00
2018-09-27T03:12:58.134Z,8.77
2018-09-27T03:15:32.552Z,9.40
2018-09-27T03:18:07.585Z,9.17
2018-09-27T03:37:59.517Z,9.03
2018-09-27T03:40:34.589Z,9.63
2018-09-27T03:43:09.588Z,9.13
2018-09-27T03:45:43.597Z,7.37
2018-09-27T03:48:18.631Z,8.93
2018-09-27T04:28:13.560Z,10.53
2018-09-27T04:30:47.366Z,11.63
2018-09-27T05:10:45.577Z,12.73
2018-09-27T05:13:23.082Z,13.33
2018-09-27T05:33:15.609Z,13.33
2018-09-27T05:35:50.645Z,12.73
2018-09-27T05:38:25.679Z,12.83
2018-09-27T05:41:04.085Z,11.63
2018-09-27T05:43:37.589Z,12.10
2018-09-27T06:03:31.814Z,12.10
2018-09-27T06:06:07.632Z,12.80
2018-09-27T06:08:44.098Z,12.93
2018-09-27T06:28:39.715Z,13.30
2018-09-27T06:31:15.571Z,12.53
2018-09-27T06:51:12.697Z,15.17
2018-09-27T06:56:40.792Z,15.60
2018-09-27T07:16:32.446Z,16.83
2018-09-27T07:19:06.659Z,15.83
2018-09-27T07:21:41.898Z,17.77
2018-09-27T07:41:35.677Z,17.60
2018-09-27T07:44:14.601Z,18.00
2018-09-27T08:04:09.034Z,15.70
2018-09-27T08:24:01.765Z,13.83
2018-09-27T08:26:35.819Z,14.40
2018-09-27T08:46:30.766Z,14.23
2018-09-27T08:49:07.647Z,14.10
2018-09-27T08:51:43.728Z,15.07
2018-09-27T09:11:36.661Z,15.03
2018-09-27T09:14:11.694Z,14.77
2018-09-27T09:16:46.728Z,13.57
2018-09-27T09:19:21.979Z,13.33
2018-09-27T09:22:01.713Z,14.90
2018-09-27T09:24:36.802Z,13.93
2018-09-27T09:27:12.799Z,14.27
2018-09-27T09:47:08.495Z,12.23
2018-09-27T09:49:46.736Z,11.57
2018-09-27T09:52:21.971Z,11.07
2018-09-27T10:12:18.828Z,10.07
2018-09-27T10:14:53.651Z,10.20
2018-09-27T10:34:48.659Z,10.17
2018-09-27T10:37:23.692Z,10.37
2018-09-27T10:40:02.624Z,9.63
2018-09-27T10:59:57.837Z,9.80
2018-09-27T11:02:32.668Z,9.57
2018-09-27T11:05:06.669Z,9.70
2018-09-27T11:07:40.674Z,9.60
2018-09-27T11:10:16.326Z,10.27
2018-09-27T11:30:13.790Z,9.37
2018-09-27T11:32:49.892Z,10.00
2018-09-27T11:52:43.834Z,10.47
2018-09-27T11:55:19.068Z,11.20
2018-09-27T11:57:52.876Z,10.40
2018-09-27T12:17:47.886Z,10.43
2018-09-27T12:20:24.963Z,9.77
2018-09-27T12:22:58.580Z,9.63
2018-09-27T12:25:33.604Z,10.07
2018-09-27T12:28:09.657Z,9.03
2018-09-27T12:48:05.730Z,9.03
2018-09-27T12:50:42.866Z,9.40
2018-09-27T12:53:16.824Z,8.23
2018-09-27T12:55:52.442Z,8.53
2018-09-27T12:58:28.981Z,9.27
2018-09-27T13:18:21.852Z,7.30
2018-09-27T13:20:56.682Z,7.03
2018-09-27T13:23:30.890Z,7.03
2018-09-27T13:43:24.674Z,4.10
2018-09-27T13:46:03.808Z,3.57
2018-09-27T14:06:00.039Z,4.20
2018-09-27T14:25:54.637Z,4.23
2018-09-27T14:28:30.079Z,4.13
2018-09-27T14:31:04.908Z,3.73
2018-09-27T14:33:39.941Z,3.10
2018-09-27T14:36:14.972Z,4.20
2018-09-27T14:56:09.166Z,4.13
2018-09-27T14:58:44.052Z,4.10
2018-09-27T15:21:30.011Z,4.47
2018-09-27T15:24:04.021Z,4.00
2018-09-27T15:26:41.108Z,3.70
2018-09-27T15:29:16.957Z,5.70
2018-09-27T15:31:53.013Z,5.40
2018-09-27T15:34:33.177Z,4.37
2018-09-27T15:37:09.426Z,3.90
2018-09-27T15:39:45.488Z,4.00
2018-09-27T15:42:21.133Z,3.30
2018-09-27T15:44:58.591Z,3.83
2018-09-27T15:47:33.042Z,4.33
2018-09-27T15:50:08.076Z,3.90
2018-09-27T15:52:43.111Z,3.70
2018-09-27T15:55:19.168Z,3.83
2018-09-27T15:57:54.219Z,3.63
2018-09-27T16:00:34.150Z,4.33
2018-09-27T16:03:09.388Z,3.67
2018-09-27T16:05:44.013Z,3.70
2018-09-27T16:08:18.224Z,3.90
2018-09-27T16:10:54.080Z,3.50
2018-09-27T16:13:33.006Z,3.90
2018-09-27T16:33:24.963Z,3.97
2018-09-27T16:36:00.994Z,4.00
2018-09-27T16:55:55.999Z,4.80
2018-09-27T16:58:34.106Z,5.10
2018-09-27T17:18:29.524Z,4.67
2018-09-27T17:38:23.098Z,4.93
2018-09-27T17:40:56.291Z,4.97
2018-09-27T17:43:31.137Z,5.00
2018-09-27T17:46:09.634Z,4.97
2018-09-27T17:48:45.281Z,4.60
2018-09-27T18:08:39.265Z,4.73
2018-09-27T18:11:14.686Z,4.20
2018-09-27T18:13:51.173Z,4.47
2018-09-27T18:33:59.090Z,3.90
2018-09-27T18:36:35.553Z,4.27
2018-09-27T18:56:28.304Z,4.13
2018-09-27T18:59:03.138Z,4.40
2018-09-27T19:01:38.375Z,4.27
2018-09-27T19:04:13.204Z,4.87
2018-09-27T19:06:51.105Z,5.07
2018-09-27T19:26:49.395Z,5.50
2018-09-27T19:29:25.247Z,5.23
2018-09-27T19:49:18.405Z,5.30
2018-09-27T20:09:15.460Z,5.60
2018-09-27T20:11:52.851Z,5.10
2018-09-27T20:31:45.707Z,5.70
2018-09-27T20:34:19.319Z,5.30
2018-09-27T20:36:53.313Z,5.30
2018-09-27T20:56:46.480Z,5.27
2018-09-27T20:59:22.330Z,5.77
2018-09-27T21:01:57.366Z,4.90
2018-09-27T21:04:32.399Z,4.97
2018-09-27T21:07:08.251Z,5.00
2018-09-27T21:27:00.190Z,4.90
2018-09-27T21:29:35.426Z,5.00
2018-09-27T21:32:12.099Z,4.43
2018-09-27T21:34:46.925Z,5.33
2018-09-27T21:37:22.369Z,5.17
2018-09-27T21:57:15.534Z,5.23
2018-09-27T21:59:49.543Z,5.53
2018-09-27T22:19:44.757Z,4.90
2018-09-27T22:22:20.814Z,5.00
2018-09-27T22:24:55.645Z,4.93
2018-09-27T22:44:49.630Z,4.60
2018-09-27T22:47:24.454Z,4.73
2018-09-27T22:49:59.077Z,5.20
2018-09-27T22:52:33.702Z,4.50
2018-09-27T22:55:08.736Z,5.23
2018-09-27T23:15:02.722Z,4.20
2018-09-27T23:17:37.553Z,4.40
2018-09-27T23:37:31.737Z,4.10
2018-09-27T23:57:25.718Z,5.10
